ADDS METAR Data INFO
IDs: Format: Raw Decoded Include TAF

Data at: 1012 UTC 14 Dec 2017

KXPY 140955Z AUTO 00000KT 10SM CLR 12/10 A2998 RMK A01
KXPY 140935Z AUTO 00000KT 10SM CLR 12/10 A2999 RMK A01
KXPY 140915Z AUTO 00000KT 10SM CLR 13/11 A2998 RMK A01
KXPY 140855Z AUTO 00000KT 10SM CLR 13/11 A2999 RMK A01
KXPY 140835Z AUTO 00000KT 10SM CLR 12/11 A2999 RMK A01
KXPY 140815Z AUTO 33003KT 10SM FEW035 13/11 A3000 RMK A01
KXPY 140755Z AUTO 00000KT 10SM CLR 12/11 A2998 RMK A01
KXPY 140735Z AUTO 00000KT 10SM CLR 12/11 A2999 RMK A01
KXPY 140715Z AUTO 00000KT 10SM CLR 12/11 A3000 RMK A01
KXPY 140655Z AUTO 31003KT 10SM CLR 13/11 A3000 RMK A01
KXPY 140635Z AUTO 00000KT 10SM CLR 14/11 A2999 RMK A01
KXPY 140615Z AUTO 27003KT 10SM FEW032 15/11 A2999 RMK A01
KXPY 140555Z AUTO 24005KT 10SM BKN032 15/11 A3000 RMK A01
KXPY 140535Z AUTO 23005KT 10SM OVC032 16/11 A3000 RMK A01
KXPY 140515Z AUTO 23006KT 10SM OVC031 16/11 A3001 RMK A01
KXPY 140455Z AUTO 23006KT 10SM OVC030 16/11 A3001 RMK A01
KXPY 140435Z AUTO 24007KT 10SM SCT029 16/11 A3002 RMK A01
KXPY 140415Z AUTO 23006KT 10SM CLR 16/10 A3002 RMK A01
KXPY 140355Z AUTO 22007KT 10SM CLR 16/10 A3002 RMK A01
KXPY 140335Z AUTO 22008KT 10SM CLR 16/10 A3003 RMK A01
KXPY 140315Z AUTO 22005KT 10SM CLR 15/10 A3004 RMK A01
KXPY 140255Z AUTO 23006KT 10SM CLR 15/10 A3004 RMK A01
KXPY 140235Z AUTO 23006KT 10SM CLR 15/10 A3004 RMK A01
KXPY 140215Z AUTO 23005KT 10SM CLR 15/09 A3005 RMK A01
KXPY 140155Z AUTO 24006KT 10SM CLR 15/09 A3006 RMK A01
KXPY 140135Z AUTO 24006KT 10SM CLR 15/09 A3006 RMK A01
KXPY 140115Z AUTO 23006G12KT 10SM CLR 15/09 A3005 RMK A01
KXPY 140055Z AUTO 24007KT 10SM CLR 14/08 A3006 RMK A01
KXPY 140035Z AUTO 23007KT 10SM CLR 14/08 A3006 RMK A01
KXPY 140015Z AUTO 24007KT 10SM CLR 14/08 A3006 RMK A01
KXPY 132355Z AUTO 23005KT 10SM CLR 14/08 A3005 RMK A01
KXPY 132335Z AUTO 24005KT 10SM CLR 14/07 A3006 RMK A01
KXPY 132315Z AUTO 24005KT 10SM CLR 14/07 A3006 RMK A01
KXPY 132255Z AUTO 23004KT 10SM CLR 14/06 A3006 RMK A01
KXPY 132235Z AUTO 26005KT 10SM CLR 14/06 A3007 RMK A01
KXPY 132215Z AUTO 27004KT 10SM CLR 14/06 A3008 RMK A01
KXPY 132155Z AUTO 26004KT 10SM CLR 14/05 A3008 RMK A01
KXPY 132135Z AUTO 25005KT 10SM CLR 14/04 A3009 RMK A01
KXPY 132115Z AUTO 27007KT 10SM CLR 14/04 A3010 RMK A01
KXPY 132055Z AUTO 27006KT 10SM CLR 14/03 A3011 RMK A01
KXPY 132035Z AUTO 29007KT 10SM CLR 14/03 A3011 RMK A01
KXPY 132015Z AUTO 29007KT 10SM CLR 14/03 A3011 RMK A01
KXPY 131955Z AUTO 29006KT 10SM CLR 14/04 A3011 RMK A01
KXPY 131935Z AUTO 28006KT 10SM CLR 14/04 A3012 RMK A01
KXPY 131915Z AUTO 26007KT 10SM CLR 14/03 A3012 RMK A01
KXPY 131855Z AUTO 28007KT 10SM CLR 14/03 A3014 RMK A01
KXPY 131835Z AUTO 27007KT 10SM CLR 14/04 A3015 RMK A01
KXPY 131815Z AUTO 21006KT 10SM CLR 15/03 A3016 RMK A01
KXPY 131755Z AUTO 18007KT 10SM CLR 14/02 A3016 RMK A01
KXPY 131735Z AUTO 20006KT 10SM CLR 14/02 A3017 RMK A01
KXPY 131715Z AUTO 17008KT 140V200 10SM CLR 14/01 A3018 RMK A01
KXPY 131655Z AUTO 15006KT 10SM CLR 14/01 A3019 RMK A01
KXPY 131635Z AUTO 16006KT 10SM CLR 14/01 A3019 RMK A01
KXPY 131615Z AUTO 11007KT 10SM CLR 14/01 A3019 RMK A01
KXPY 131555Z AUTO 14006KT 10SM CLR 13/00 A3019 RMK A01
KXPY 131535Z AUTO 09004KT 10SM CLR 13/03 A3020 RMK A01
KXPY 131515Z AUTO 03004KT 10SM CLR 13/05 A3020 RMK A01
KXPY 131455Z AUTO 08004KT 9SM CLR 11/05 A3019 RMK A01
KXPY 131435Z AUTO 05004KT 10SM CLR 11/05 A3019 RMK A01
KXPY 131415Z AUTO 05003KT 5SM HZ CLR 10/05 A3019 RMK A01
KXPY 131355Z AUTO 03004KT 10SM CLR 10/05 A3019 RMK A01
KXPY 131335Z AUTO 00000KT 10SM CLR 08/05 A3019 RMK A01
KXPY 131310Z AUTO 02003KT 10SM CLR 07/05 A3019 RMK A01
KXPY 131255Z AUTO 00000KT 10SM CLR 07/05 A3019 RMK A01
KXPY 131235Z AUTO 00000KT 10SM CLR 07/04 A3019 RMK A01
KXPY 131215Z AUTO 03004KT 10SM CLR 08/04 A3018 RMK A01
KXPY 131155Z AUTO 00000KT 10SM CLR 08/04 A3018 RMK A01
KXPY 131135Z AUTO 03003KT 10SM CLR 08/04 A3018 RMK A01
KXPY 131115Z AUTO 00000KT 10SM CLR 08/04 A3018 RMK A01
KXPY 131055Z AUTO 02004KT 10SM CLR 08/04 A3017 RMK A01
KXPY 131035Z AUTO 02004KT 10SM CLR 08/04 A3018 RMK A01
KXPY 131015Z AUTO 01004KT 10SM CLR 09/04 A3017 RMK A01
KXPY 130955Z AUTO 01005KT 10SM CLR 09/04 A3017 RMK A01
KXPY 130935Z AUTO 01006KT 10SM CLR 09/04 A3017 RMK A01
KXPY 130915Z AUTO 01006KT 10SM CLR 09/04 A3018 RMK A01
KXPY 130855Z AUTO 01006KT 10SM CLR 09/04 A3018 RMK A01
KXPY 130835Z AUTO 01003KT 10SM CLR 09/05 A3017 RMK A01
KXPY 130815Z AUTO 02004KT 10SM CLR 09/05 A3017 RMK A01
KXPY 130755Z AUTO 01006KT 10SM CLR 09/05 A3016 RMK A01
KXPY 130735Z AUTO 02005KT 10SM CLR 10/04 A3017 RMK A01
KXPY 130715Z AUTO 02005KT 10SM CLR 10/04 A3017 RMK A01
KXPY 130655Z AUTO 01007KT 10SM CLR 10/04 A3017 RMK A01
KXPY 130635Z AUTO 01007KT 10SM CLR 10/04 A3017 RMK A01
KXPY 130615Z AUTO 36009KT 10SM CLR 10/03 A3018 RMK A01
KXPY 130555Z AUTO 36008KT 10SM CLR 10/03 A3018 RMK A01
KXPY 130535Z AUTO 36008KT 10SM CLR 10/04 A3019 RMK A01
KXPY 130515Z AUTO 35007KT 10SM CLR 10/04 A3019 RMK A01
KXPY 130455Z AUTO 35006KT 10SM CLR 10/05 A3019 RMK A01
KXPY 130435Z AUTO 35007KT 10SM CLR 10/05 A3019 RMK A01
KXPY 130415Z AUTO 34007KT 10SM CLR 10/05 A3019 RMK A01
KXPY 130355Z AUTO 33007KT 10SM CLR 10/05 A3019 RMK A01
KXPY 130335Z AUTO 34008KT 10SM CLR 10/05 A3019 RMK A01
KXPY 130315Z AUTO 33008KT 10SM CLR 10/05 A3019 RMK A01
KXPY 130255Z AUTO 33007KT 10SM CLR 11/05 A3019 RMK A01
KXPY 130235Z AUTO 33007KT 10SM CLR 11/06 A3019 RMK A01
KXPY 130215Z AUTO 32007KT 10SM CLR 11/07 A3019 RMK A01
KXPY 130155Z AUTO 34007KT 10SM CLR 11/06 A3019 RMK A01
KXPY 130135Z AUTO 33003KT 10SM CLR 11/07 A3018 RMK A01
KXPY 130115Z AUTO 32004KT 10SM CLR 11/07 A3018 RMK A01
KXPY 130055Z AUTO 33004KT 10SM CLR 13/06 A3017 RMK A01
KXPY 130035Z AUTO 00000KT 10SM CLR 13/07 A3017 RMK A01
KXPY 130015Z AUTO 00000KT 10SM CLR 13/07 A3017 RMK A01
KXPY 122355Z AUTO 00000KT 10SM FEW037 13/07 A3016 RMK A01
KXPY 122335Z AUTO 00000KT 10SM CLR 13/06 A3015 RMK A01
KXPY 122315Z AUTO 00000KT 10SM CLR 14/06 A3015 RMK A01
KXPY 122255Z AUTO 36003KT 10SM CLR 15/05 A3013 RMK A01
KXPY 122235Z AUTO 34005KT 10SM CLR 16/03 A3013 RMK A01
KXPY 122215Z AUTO 33008KT 10SM CLR 16/04 A3013 RMK A01